Time;durP1;ratioP1;P1;durP2;ratioP2;P2;SDS_P1;SDS_P2;PMS_P1;PMS_P2;Temp;Humidity;BMP_temperature;BMP_pressure;BME280_temperature;BME280_humidity;BME280_pressure;Samples;Min_cycle;Max_cycle;Signal;HPM_P1;HPM_P2
2022/03/16 00:06:30;;;;;;;50.2;56.8;;;;;;;6.1;55.5;99100;;;;
2022/03/16 00:17:30;;;;;;;45.8;56.9;;;;;;;6;56.7;99100;;;;
2022/03/16 00:27:30;;;;;;;45.8;56.9;;;;;;;5.8;58.9;99100;;;;
2022/03/16 00:38:30;;;;;;;50.5;60.2;;;;;;;5.7;58.4;99080;;;;
2022/03/16 00:48:30;;;;;;;50.5;60.2;;;;;;;5.7;59.3;99080;;;;
2022/03/16 00:58:30;;;;;;;50.5;60.2;;;;;;;5.6;59.9;99080;;;;
2022/03/16 01:09:30;;;;;;;56.3;65;;;;;;;5.8;61.4;99070;;;;
2022/03/16 01:19:31;;;;;;;56.3;65;;;;;;;5.9;60.4;99050;;;;
2022/03/16 01:29:30;;;;;;;56.3;65;;;;;;;6.1;59.3;99030;;;;
2022/03/16 01:40:30;;;;;;;65.1;77;;;;;;;6;59.4;99060;;;;
2022/03/16 01:50:30;;;;;;;65.1;77;;;;;;;5.9;60.5;99030;;;;
2022/03/16 02:00:30;;;;;;;65.1;77;;;;;;;5.8;59.8;99020;;;;
2022/03/16 02:10:30;;;;;;;79.7;101.2;;;;;;;5.7;60.6;99030;;;;
2022/03/16 02:20:30;;;;;;;79.7;101.2;;;;;;;5.6;61.2;99040;;;;
2022/03/16 02:31:30;;;;;;;79.7;101.2;;;;;;;5.7;60;99030;;;;
2022/03/16 02:41:30;;;;;;;70.2;82.8;;;;;;;5.7;60;99020;;;;
2022/03/16 02:52:30;;;;;;;70.2;82.8;;;;;;;5.8;58.9;99020;;;;
2022/03/16 03:03:30;;;;;;;70.2;82.8;;;;;;;5.7;59.3;99030;;;;
2022/03/16 03:14:30;;;;;;;60.3;81;;;;;;;5.7;60.3;99040;;;;
2022/03/16 03:25:30;;;;;;;60.3;81;;;;;;;5.5;60.7;99050;;;;
2022/03/16 03:36:30;;;;;;;60.3;81;;;;;;;5.4;60.8;99040;;;;
2022/03/16 03:47:30;;;;;;;60.7;71.6;;;;;;;5.3;61.4;99030;;;;
2022/03/16 03:58:30;;;;;;;60.7;71.6;;;;;;;5.3;61.4;99050;;;;
2022/03/16 04:09:30;;;;;;;51.6;64.7;;;;;;;5.3;61.2;99050;;;;
2022/03/16 04:19:30;;;;;;;51.6;64.7;;;;;;;5.4;61;99050;;;;
2022/03/16 04:30:30;;;;;;;51.6;64.7;;;;;;;5.4;61.5;99060;;;;
2022/03/16 04:40:30;;;;;;;38.9;43.8;;;;;;;5.4;62.7;99060;;;;
2022/03/16 04:51:30;;;;;;;38.9;43.8;;;;;;;5.5;64.2;99070;;;;
2022/03/16 05:01:30;;;;;;;38.9;43.8;;;;;;;5.5;64.7;99070;;;;
2022/03/16 05:11:30;;;;;;;31.1;36.2;;;;;;;5.7;65.6;99070;;;;
2022/03/16 05:22:30;;;;;;;31.1;36.2;;;;;;;5.8;66.2;99080;;;;
2022/03/16 05:32:30;;;;;;;31.1;36.2;;;;;;;6;66.8;99090;;;;
2022/03/16 05:43:30;;;;;;;28.1;33.9;;;;;;;6.2;68;99090;;;;
2022/03/16 05:54:30;;;;;;;28.1;33.9;;;;;;;6.3;69.6;99100;;;;
2022/03/16 06:04:30;;;;;;;28.1;33.9;;;;;;;6.4;70.5;99110;;;;
2022/03/16 06:14:30;;;;;;;23.8;30.2;;;;;;;6.6;72.2;99120;;;;
2022/03/16 06:25:31;;;;;;;23.8;30.2;;;;;;;6.6;73.4;99130;;;;
2022/03/16 06:35:30;;;;;;;23.8;30.2;;;;;;;6.7;73.8;99140;;;;
2022/03/16 06:45:30;;;;;;;20.1;24.6;;;;;;;6.9;73.7;99140;;;;
2022/03/16 06:56:30;;;;;;;20.1;24.6;;;;;;;7.1;73.7;99140;;;;
2022/03/16 07:06:30;;;;;;;20.1;24.6;;;;;;;7.3;73.4;99140;;;;
2022/03/16 07:17:30;;;;;;;14.2;15.9;;;;;;;7.7;71.9;99150;;;;
2022/03/16 07:27:30;;;;;;;14.2;15.9;;;;;;;8.1;70.5;99170;;;;
2022/03/16 07:37:30;;;;;;;14;22.1;;;;;;;8;70.3;99180;;;;
2022/03/16 07:48:30;;;;;;;14;22.1;;;;;;;8;69.8;99210;;;;
2022/03/16 07:58:30;;;;;;;14;22.1;;;;;;;8.5;68.5;99220;;;;
2022/03/16 08:08:31;;;;;;;12.4;14.5;;;;;;;8.5;68.9;99230;;;;
2022/03/16 08:19:30;;;;;;;12.4;14.5;;;;;;;8.7;68.2;99240;;;;
2022/03/16 08:30:30;;;;;;;12.4;14.5;;;;;;;8.4;68.7;99240;;;;
2022/03/16 08:40:30;;;;;;;14.8;18.6;;;;;;;8.6;67.5;99250;;;;
2022/03/16 08:51:30;;;;;;;14.8;18.6;;;;;;;9.2;67;99250;;;;
2022/03/16 09:02:30;;;;;;;14.8;18.6;;;;;;;9.5;65.4;99250;;;;
2022/03/16 09:12:30;;;;;;;15.1;18.3;;;;;;;9.8;63.4;99260;;;;
2022/03/16 09:22:30;;;;;;;15.1;18.3;;;;;;;10;62.6;99280;;;;
2022/03/16 09:32:33;;;;;;;15.1;18.3;;;;;;;10;61.5;99300;;;;
2022/03/16 09:42:30;;;;;;;16.8;21.1;;;;;;;10.4;60.2;99310;;;;
2022/03/16 09:52:30;;;;;;;16.8;21.1;;;;;;;10.3;60.5;99320;;;;
2022/03/16 10:03:30;;;;;;;16.8;21.1;;;;;;;10.7;60.2;99330;;;;
2022/03/16 10:13:30;;;;;;;25.9;29;;;;;;;11;57.4;99340;;;;
2022/03/16 10:24:30;;;;;;;25.9;29;;;;;;;10.6;57.5;99370;;;;
2022/03/16 10:34:30;;;;;;;25.9;29;;;;;;;10.4;56.9;99380;;;;
2022/03/16 10:46:34;;;;;;;21;24.3;;;;;;;11.5;57.4;99380;;;;
2022/03/16 10:55:30;;;;;;;21;24.3;;;;;;;12.1;55.3;99390;;;;
2022/03/16 11:06:30;;;;;;;21;24.3;;;;;;;11.6;52.7;99400;;;;
2022/03/16 11:17:30;;;;;;;19.9;24.3;;;;;;;11.6;52.4;99410;;;;
2022/03/16 11:28:31;;;;;;;19.9;24.3;;;;;;;11.6;54.2;99410;;;;
2022/03/16 11:39:30;;;;;;;17.9;21.8;;;;;;;12.1;52.9;99420;;;;
2022/03/16 11:50:30;;;;;;;17.9;21.8;;;;;;;12.2;49.2;99420;;;;
2022/03/16 12:01:31;;;;;;;17.9;21.8;;;;;;;11.2;52;99430;;;;
2022/03/16 12:21:33;;;;;;;21.8;26.2;;;;;;;11.2;51.4;99440;;;;
2022/03/16 12:31:30;;;;;;;21.8;26.2;;;;;;;11.6;50;99440;;;;
2022/03/16 12:42:31;;;;;;;30;35.9;;;;;;;12.3;49.8;99450;;;;
2022/03/16 12:52:30;;;;;;;30;35.9;;;;;;;11.9;47.9;99460;;;;
2022/03/16 13:02:31;;;;;;;30;35.9;;;;;;;12.2;46.8;99470;;;;
2022/03/16 13:12:30;;;;;;;27.3;35.6;;;;;;;11.6;48.3;99470;;;;
2022/03/16 13:23:31;;;;;;;27.3;35.6;;;;;;;11.8;49.5;99470;;;;
2022/03/16 13:34:30;;;;;;;27.3;35.6;;;;;;;12.4;48.1;99480;;;;
2022/03/16 13:44:34;;;;;;;23;30.3;;;;;;;12.5;48.4;99480;;;;
2022/03/16 13:55:31;;;;;;;23;30.3;;;;;;;12.8;47.7;99490;;;;
2022/03/16 14:06:30;;;;;;;23;30.3;;;;;;;12.5;47.5;99500;;;;
2022/03/16 14:17:30;;;;;;;22;27.9;;;;;;;12.8;46.4;99510;;;;
2022/03/16 14:28:30;;;;;;;22;27.9;;;;;;;12.8;48.4;99530;;;;
2022/03/16 14:38:30;;;;;;;16.3;20.5;;;;;;;12.4;47.4;99540;;;;
2022/03/16 14:49:30;;;;;;;16.3;20.5;;;;;;;11.7;47.2;99550;;;;
2022/03/16 14:59:30;;;;;;;16.3;20.5;;;;;;;11.7;47.5;99560;;;;
2022/03/16 15:09:30;;;;;;;13.5;17.6;;;;;;;11.9;47.7;99570;;;;
2022/03/16 15:19:30;;;;;;;13.5;17.6;;;;;;;11.8;46.3;99570;;;;
2022/03/16 15:29:30;;;;;;;13.5;17.6;;;;;;;12;46.5;99580;;;;
2022/03/16 15:39:30;;;;;;;13.7;16.1;;;;;;;12.1;46.8;99590;;;;
2022/03/16 15:50:30;;;;;;;13.7;16.1;;;;;;;12.7;46;99600;;;;
2022/03/16 16:01:31;;;;;;;13.7;16.1;;;;;;;12.5;45.8;99620;;;;
2022/03/16 16:12:30;;;;;;;15.2;18.5;;;;;;;12.4;46;99630;;;;
2022/03/16 16:22:30;;;;;;;15.2;18.5;;;;;;;11.7;46.8;99640;;;;
2022/03/16 16:33:30;;;;;;;15.2;18.5;;;;;;;10.6;48.6;99670;;;;
2022/03/16 16:43:30;;;;;;;20.3;25.2;;;;;;;9.7;49.9;99680;;;;
2022/03/16 16:53:31;;;;;;;20.3;25.2;;;;;;;9;51.8;99690;;;;
2022/03/16 17:04:30;;;;;;;20.3;25.2;;;;;;;8.2;54.1;99710;;;;
2022/03/16 17:14:31;;;;;;;20.6;23.7;;;;;;;7.5;54.5;99730;;;;
2022/03/16 17:25:30;;;;;;;20.6;23.7;;;;;;;6.8;56;99740;;;;
2022/03/16 17:35:32;;;;;;;20.6;23.7;;;;;;;6.3;59.4;99750;;;;
2022/03/16 17:45:31;;;;;;;32.4;44.9;;;;;;;6;60.4;99750;;;;
2022/03/16 17:56:46;;;;;;;32.4;44.9;;;;;;;6;60.4;99760;;;;
2022/03/16 18:07:30;;;;;;;41.2;50.8;;;;;;;5.7;60.7;99760;;;;
2022/03/16 18:17:30;;;;;;;41.2;50.8;;;;;;;5.5;62.4;99770;;;;
2022/03/16 18:28:32;;;;;;;41.2;50.8;;;;;;;5.3;62.5;99770;;;;
2022/03/16 18:38:30;;;;;;;47.3;55.7;;;;;;;5.3;62.8;99770;;;;
2022/03/16 18:49:30;;;;;;;47.3;55.7;;;;;;;5.4;61.3;99780;;;;
2022/03/16 19:00:32;;;;;;;47.3;55.7;;;;;;;5.8;58.7;99800;;;;
2022/03/16 19:21:31;;;;;;;31.9;41.5;;;;;;;5.7;57.8;99820;;;;
2022/03/16 19:32:31;;;;;;;31.9;41.5;;;;;;;5.7;56.5;99820;;;;
2022/03/16 19:42:31;;;;;;;38.1;44.2;;;;;;;5.6;56.1;99840;;;;
2022/03/16 19:53:30;;;;;;;38.1;44.2;;;;;;;5.5;56.3;99840;;;;
2022/03/16 20:03:31;;;;;;;38.1;44.2;;;;;;;5;57;99860;;;;
2022/03/16 20:13:30;;;;;;;37;43.1;;;;;;;4.5;58;99870;;;;
2022/03/16 20:24:31;;;;;;;37;43.1;;;;;;;3.9;59.1;99880;;;;
2022/03/16 20:34:30;;;;;;;37;43.1;;;;;;;3.3;60.6;99880;;;;
2022/03/16 20:45:32;;;;;;;51.2;58.7;;;;;;;2.9;62.2;99900;;;;
2022/03/16 20:55:30;;;;;;;51.2;58.7;;;;;;;2.5;63;99910;;;;
2022/03/16 21:06:32;;;;;;;56.7;68.9;;;;;;;2.3;64.9;99920;;;;
2022/03/16 21:16:31;;;;;;;56.7;68.9;;;;;;;2;65.3;99930;;;;
2022/03/16 21:26:30;;;;;;;56.7;68.9;;;;;;;1.9;67;99940;;;;
2022/03/16 21:37:30;;;;;;;69.9;81.2;;;;;;;1.7;67;99940;;;;
2022/03/16 21:47:30;;;;;;;69.9;81.2;;;;;;;1.7;68.3;99940;;;;
2022/03/16 21:57:30;;;;;;;69.9;81.2;;;;;;;1.8;69;99940;;;;
2022/03/16 22:07:30;;;;;;;53.4;68.3;;;;;;;1.6;67.8;99950;;;;
2022/03/16 22:18:30;;;;;;;53.4;68.3;;;;;;;1.3;68;99950;;;;
2022/03/16 22:29:30;;;;;;;53.4;68.3;;;;;;;1.1;68.6;99960;;;;
2022/03/16 22:39:30;;;;;;;47.5;56.4;;;;;;;1;68.9;99980;;;;
2022/03/16 22:50:31;;;;;;;47.5;56.4;;;;;;;0.9;70;99990;;;;
2022/03/16 23:00:31;;;;;;;47.5;56.4;;;;;;;0.9;70.2;99980;;;;
2022/03/16 23:11:30;;;;;;;48.9;65.5;;;;;;;1;70.4;99990;;;;
2022/03/16 23:21:30;;;;;;;48.9;65.5;;;;;;;1.1;71.3;99990;;;;
2022/03/16 23:32:30;;;;;;;48.9;65.5;;;;;;;1.3;71.8;99990;;;;
2022/03/16 23:43:32;;;;;;;56.6;73.5;;;;;;;1.5;71.3;99990;;;;
2022/03/16 23:53:30;;;;;;;56.6;73.5;;;;;;;1.4;70.8;100010;;;;
